Time;durP1;ratioP1;P1;durP2;ratioP2;P2;SDS_P1;SDS_P2;PMS_P1;PMS_P2;Temp;Humidity;BMP_temperature;BMP_pressure;BME280_temperature;BME280_humidity;BME280_pressure;Samples;Min_cycle;Max_cycle;Signal;HPM_P1;HPM_P2
2022/12/12 00:01:56;;;;;;;27.07;12.97;;;;;;;-2.24;100.00;99919.91;5026739;28;20068;-73
2022/12/12 00:04:22;;;;;;;23.30;12.37;;;;;;;-2.34;100.00;99917.81;5022389;28;20414;-72
2022/12/12 00:06:47;;;;;;;22.50;12.80;;;;;;;-2.46;100.00;99913.97;5025246;28;20048;-73
2022/12/12 00:09:12;;;;;;;21.07;11.93;;;;;;;-2.51;100.00;99914.63;5021326;28;20033;-72
2022/12/12 00:11:38;;;;;;;22.80;12.03;;;;;;;-2.58;100.00;99913.53;5023992;28;20041;-72
2022/12/12 00:14:03;;;;;;;22.53;12.77;;;;;;;-2.56;100.00;99929.09;5023634;28;20104;-72
2022/12/12 00:16:29;;;;;;;23.30;12.23;;;;;;;-2.63;100.00;99909.00;5024171;28;20038;-72
2022/12/12 00:18:54;;;;;;;26.07;14.50;;;;;;;-2.63;100.00;99916.75;5022373;28;20041;-72
2022/12/12 00:21:26;;;;;;;24.90;12.67;;;;;;;-2.57;100.00;99919.56;5027211;28;20103;-72
2022/12/12 00:23:52;;;;;;;22.20;12.37;;;;;;;-2.50;100.00;99924.13;5022005;28;20408;-73
2022/12/12 00:26:23;;;;;;;28.47;14.03;;;;;;;-2.51;100.00;99922.38;5021930;28;20087;-73
2022/12/12 00:28:49;;;;;;;23.93;11.97;;;;;;;-2.42;100.00;99920.13;5025593;28;20041;-72
2022/12/12 00:31:15;;;;;;;25.23;12.70;;;;;;;-2.38;100.00;99922.00;5023964;28;20037;-73
2022/12/12 00:33:40;;;;;;;27.17;13.30;;;;;;;-2.44;100.00;99911.44;5021329;28;20116;-73
2022/12/12 00:36:05;;;;;;;25.33;12.93;;;;;;;-2.53;100.00;99924.91;5008986;22;1031906;-75
2022/12/12 00:38:31;;;;;;;27.97;12.83;;;;;;;-2.57;100.00;99923.00;5032867;28;20035;-75
2022/12/12 00:40:59;;;;;;;24.60;13.60;;;;;;;-2.65;100.00;99920.19;5029064;28;20504;-75
2022/12/12 00:43:25;;;;;;;23.20;12.57;;;;;;;-2.52;100.00;99915.44;5033019;28;20033;-75
2022/12/12 00:45:51;;;;;;;22.83;11.57;;;;;;;-2.53;100.00;99924.03;5031761;28;20037;-75
2022/12/12 00:48:16;;;;;;;23.47;12.80;;;;;;;-2.51;100.00;99922.38;5022072;28;20041;-75
2022/12/12 00:50:42;;;;;;;25.43;12.60;;;;;;;-2.55;100.00;99917.91;5023202;28;20088;-75
2022/12/12 00:53:07;;;;;;;24.30;12.23;;;;;;;-2.46;100.00;99926.03;5021207;28;20034;-75
2022/12/12 00:55:32;;;;;;;26.23;13.27;;;;;;;-2.46;100.00;99920.84;5021321;28;20041;-75
2022/12/12 00:57:57;;;;;;;23.23;13.50;;;;;;;-2.36;100.00;99920.31;5020219;28;20044;-75
2022/12/12 01:00:23;;;;;;;24.80;12.53;;;;;;;-2.35;100.00;99922.09;5020850;28;20033;-75
2022/12/12 01:02:48;;;;;;;27.03;12.83;;;;;;;-2.29;100.00;99927.47;5021577;28;20025;-75
2022/12/12 01:05:15;;;;;;;25.07;12.27;;;;;;;-2.31;100.00;99921.38;5023146;28;20522;-75
2022/12/12 01:07:40;;;;;;;30.97;13.93;;;;;;;-2.27;100.00;99925.84;5022302;28;20037;-75
2022/12/12 01:10:07;;;;;;;25.27;12.70;;;;;;;-2.19;100.00;99930.41;5022018;28;20048;-75
2022/12/12 01:12:32;;;;;;;23.87;12.80;;;;;;;-2.27;100.00;99925.84;5021209;28;20116;-76
2022/12/12 01:14:58;;;;;;;24.87;11.53;;;;;;;-2.26;100.00;99921.53;5024051;28;20116;-75
2022/12/12 01:17:23;;;;;;;25.07;12.97;;;;;;;-2.33;100.00;99907.53;5021202;28;20037;-75
2022/12/12 01:19:48;;;;;;;24.47;13.80;;;;;;;-2.32;100.00;99922.22;5021421;28;20116;-75
2022/12/12 01:22:14;;;;;;;25.77;12.17;;;;;;;-2.25;100.00;99924.19;5025387;28;20045;-76
2022/12/12 01:24:39;;;;;;;26.87;13.10;;;;;;;-2.15;100.00;99919.34;5021573;28;20064;-75
2022/12/12 01:27:05;;;;;;;24.37;12.90;;;;;;;-2.19;100.00;99918.34;5020635;28;20045;-76
2022/12/12 01:29:32;;;;;;;26.03;12.20;;;;;;;-2.17;100.00;99923.56;5021822;28;20046;-76
2022/12/12 01:31:57;;;;;;;24.93;12.37;;;;;;;-2.27;100.00;99924.97;5021319;28;20034;-76
2022/12/12 01:34:22;;;;;;;28.13;13.30;;;;;;;-2.37;100.00;99923.75;5023112;28;20565;-76
2022/12/12 01:36:48;;;;;;;23.07;11.97;;;;;;;-2.40;100.00;99923.66;5021500;28;20042;-76
2022/12/12 01:39:13;;;;;;;25.67;13.37;;;;;;;-2.35;100.00;99927.28;5017864;28;20045;-76
2022/12/12 01:41:38;;;;;;;24.10;11.93;;;;;;;-2.33;100.00;99924.72;5021900;28;20151;-76
2022/12/12 01:44:42;;;;;;;22.40;12.37;;;;;;;-2.36;100.00;99928.09;5019381;28;20072;-76
2022/12/12 01:47:08;;;;;;;24.27;12.57;;;;;;;-2.40;100.00;99928.81;5018919;28;20484;-75
2022/12/12 01:49:34;;;;;;;23.67;11.43;;;;;;;-2.39;100.00;99922.81;5021531;28;20065;-76
2022/12/12 01:52:05;;;;;;;22.80;11.43;;;;;;;-2.32;100.00;99922.22;5022210;28;20037;-75
2022/12/12 01:54:36;;;;;;;21.80;12.10;;;;;;;-2.37;100.00;99923.75;5016423;28;20037;-75
2022/12/12 01:57:06;;;;;;;22.10;10.83;;;;;;;-2.39;100.00;99920.22;5021652;28;20046;-75
2022/12/12 01:59:33;;;;;;;24.37;11.77;;;;;;;-2.40;100.00;99925.34;5023121;28;20454;-75
2022/12/12 02:01:58;;;;;;;23.27;11.87;;;;;;;-2.45;100.00;99926.06;5020065;28;20048;-75
2022/12/12 02:04:26;;;;;;;26.17;12.27;;;;;;;-2.48;100.00;99918.19;5023023;28;20053;-75
2022/12/12 02:06:53;;;;;;;25.80;13.53;;;;;;;-2.49;100.00;99912.97;5020753;28;20046;-75
2022/12/12 02:09:21;;;;;;;22.23;11.60;;;;;;;-2.52;100.00;99915.44;5019874;28;20241;-75
2022/12/12 02:11:51;;;;;;;22.97;11.70;;;;;;;-2.52;100.00;99897.34;5020372;28;20052;-75
2022/12/12 02:14:24;;;;;;;25.17;11.00;;;;;;;-2.54;100.00;99904.16;5016689;28;20112;-75
2022/12/12 02:17:01;;;;;;;24.27;10.93;;;;;;;-2.61;100.00;99899.63;5021174;28;20033;-75
2022/12/12 02:19:51;;;;;;;28.53;13.70;;;;;;;-2.65;100.00;99915.00;5016268;28;20038;-75
2022/12/12 02:22:25;;;;;;;24.77;12.27;;;;;;;-2.73;100.00;99913.81;5017550;28;20034;-75
2022/12/12 02:25:11;;;;;;;25.83;13.37;;;;;;;-2.75;100.00;99905.16;5021606;28;20038;-75
2022/12/12 02:27:57;;;;;;;25.73;12.67;;;;;;;-2.76;100.00;99903.38;5018803;28;20120;-75
2022/12/12 02:30:47;;;;;;;25.87;12.83;;;;;;;-2.75;100.00;99914.59;5018006;28;20071;-75
2022/12/12 02:33:25;;;;;;;22.77;12.20;;;;;;;-2.77;100.00;99911.97;5020902;28;20069;-75
2022/12/12 02:36:13;;;;;;;27.53;13.10;;;;;;;-2.67;100.00;99924.41;5019097;28;20129;-75
2022/12/12 02:39:07;;;;;;;27.23;12.30;;;;;;;-2.65;100.00;99925.34;5019459;28;20483;-75
2022/12/12 02:41:41;;;;;;;26.40;12.80;;;;;;;-2.61;100.00;99928.03;5016572;28;20029;-75
2022/12/12 02:44:24;;;;;;;25.53;12.57;;;;;;;-2.58;100.00;99931.59;5021377;28;20504;-75
2022/12/12 02:47:06;;;;;;;26.20;12.80;;;;;;;-2.56;100.00;99927.38;5017120;28;20097;-75
2022/12/12 02:49:45;;;;;;;28.40;13.27;;;;;;;-2.45;100.00;99922.59;5019545;28;20045;-75
2022/12/12 02:52:11;;;;;;;27.50;12.63;;;;;;;-2.44;100.00;99916.59;5021700;28;20037;-75
2022/12/12 02:54:36;;;;;;;31.10;14.27;;;;;;;-2.42;100.00;99918.41;5002095;28;20038;-75
2022/12/12 02:57:02;;;;;;;30.80;14.07;;;;;;;-2.42;100.00;99920.13;5019093;28;20075;-76
2022/12/12 02:59:39;;;;;;;23.93;12.67;;;;;;;-2.35;100.00;99916.94;5019885;28;20045;-75
2022/12/12 03:02:29;;;;;;;26.83;12.53;;;;;;;-2.42;100.00;99917.53;5023085;28;20037;-76
2022/12/12 03:08:26;;;;;;;25.33;13.63;;;;;;;-2.33;100.00;99914.38;5020019;28;20145;-75
2022/12/12 03:11:00;;;;;;;25.57;12.07;;;;;;;-2.27;100.00;99920.66;5018628;28;20406;-75
2022/12/12 03:13:32;;;;;;;29.40;13.97;;;;;;;-2.22;100.00;99924.31;5022508;28;20034;-75
2022/12/12 03:16:26;;;;;;;22.80;11.60;;;;;;;-2.36;100.00;99922.91;5016407;28;20041;-75
2022/12/12 03:19:03;;;;;;;26.93;12.87;;;;;;;-2.35;100.00;99923.81;5018275;28;20500;-76
2022/12/12 03:21:47;;;;;;;27.50;13.77;;;;;;;-2.42;100.00;99921.00;5022415;28;20045;-75
2022/12/12 03:24:30;;;;;;;22.60;12.47;;;;;;;-2.43;100.00;99921.84;5021957;28;20034;-75
2022/12/12 03:27:05;;;;;;;26.70;12.50;;;;;;;-2.39;100.00;99924.53;5019024;28;20038;-76
2022/12/12 03:29:38;;;;;;;28.43;14.13;;;;;;;-2.35;100.00;99929.00;5019153;28;20045;-76
2022/12/12 03:32:11;;;;;;;24.70;11.83;;;;;;;-2.36;100.00;99929.78;5022956;28;20092;-75
2022/12/12 03:34:42;;;;;;;27.23;12.80;;;;;;;-2.35;100.00;99932.44;5005269;28;20081;-75
2022/12/12 03:37:19;;;;;;;27.23;13.77;;;;;;;-2.38;100.00;99934.03;5018571;28;20029;-75
2022/12/12 03:39:56;;;;;;;27.77;13.50;;;;;;;-2.30;100.00;99940.38;5022562;28;20037;-76
2022/12/12 03:42:37;;;;;;;27.17;13.67;;;;;;;-2.32;100.00;99947.19;5021257;28;20123;-75
2022/12/12 03:45:12;;;;;;;24.00;13.20;;;;;;;-2.21;100.00;99940.69;5018836;28;20045;-76
2022/12/12 03:47:59;;;;;;;28.37;13.93;;;;;;;-2.18;100.00;99951.13;5023630;28;20044;-75
2022/12/12 03:50:30;;;;;;;28.83;13.37;;;;;;;-2.21;100.00;99940.69;5020809;28;20038;-75
2022/12/12 03:52:55;;;;;;;22.53;11.40;;;;;;;-2.23;100.00;99938.06;5023523;28;20121;-75
2022/12/12 03:55:37;;;;;;;27.77;13.83;;;;;;;-2.25;100.00;99939.72;5022664;28;20112;-76
2022/12/12 03:58:19;;;;;;;26.15;12.70;;;;;;;-2.16;100.00;99938.28;5022992;28;20062;-76
2022/12/12 04:00:48;;;;;;;25.08;12.48;;;;;;;-2.14;100.00;99939.22;5021987;28;20381;-75
2022/12/12 04:03:20;;;;;;;25.80;13.20;;;;;;;-2.13;100.00;99938.38;5025043;28;20037;-75
2022/12/12 04:14:44;;;;;;;26.27;13.55;;;;;;;-2.21;100.00;99940.69;5021076;28;20145;-75
2022/12/12 04:17:13;;;;;;;29.17;13.23;;;;;;;-2.21;100.00;99941.56;5015790;28;20408;-75
2022/12/12 04:25:34;;;;;;;27.17;12.67;;;;;;;-2.19;100.00;99933.00;5024790;28;20045;-75
2022/12/12 04:28:04;;;;;;;27.83;13.47;;;;;;;-2.21;100.00;99938.97;5020823;28;20068;-76
2022/12/12 04:30:34;;;;;;;26.33;13.20;;;;;;;-2.23;100.00;99948.41;5021192;28;20416;-76
2022/12/12 04:33:09;;;;;;;26.13;13.00;;;;;;;-2.30;100.00;99940.38;5023928;28;20511;-75
2022/12/12 04:35:40;;;;;;;26.63;12.57;;;;;;;-2.30;100.00;99949.00;5022671;28;20625;-75
2022/12/12 04:38:12;;;;;;;27.13;12.63;;;;;;;-2.29;100.00;99942.13;5024725;28;20124;-76
2022/12/12 04:40:41;;;;;;;28.90;13.60;;;;;;;-2.29;100.00;99944.69;5019279;28;20056;-75
2022/12/12 04:43:16;;;;;;;32.87;14.30;;;;;;;-2.25;100.00;99938.84;5021716;28;20038;-75
2022/12/12 04:45:46;;;;;;;28.10;13.33;;;;;;;-2.29;100.00;99953.34;5020550;28;20042;-75
2022/12/12 04:48:16;;;;;;;28.90;13.63;;;;;;;-2.22;100.00;99949.28;5023621;28;20029;-75
2022/12/12 04:50:47;;;;;;;27.43;13.73;;;;;;;-2.26;100.00;99953.44;5021835;28;20041;-75
2022/12/12 04:53:15;;;;;;;29.50;13.60;;;;;;;-2.31;100.00;99954.97;5021924;28;20042;-75
2022/12/12 04:55:45;;;;;;;25.43;12.67;;;;;;;-2.25;100.00;99959.50;5023470;28;20032;-75
2022/12/12 04:58:10;;;;;;;26.57;13.50;;;;;;;-2.21;100.00;99954.47;5023203;28;20053;-76
2022/12/12 05:00:58;;;;;;;26.67;12.33;;;;;;;-2.18;100.00;99958.00;5022007;28;20539;-76
2022/12/12 05:03:46;;;;;;;24.83;12.97;;;;;;;-2.14;100.00;99957.31;5023054;28;20072;-76
2022/12/12 05:06:17;;;;;;;29.70;14.20;;;;;;;-2.16;100.00;99958.94;5021245;28;20147;-76
2022/12/12 05:08:46;;;;;;;26.30;12.33;;;;;;;-2.15;100.00;99952.94;5018646;28;20040;-76
2022/12/12 05:11:13;;;;;;;27.90;13.33;;;;;;;-2.22;100.00;99957.91;5020292;28;20524;-75
2022/12/12 05:13:41;;;;;;;29.13;13.53;;;;;;;-2.15;100.00;99963.28;5020957;28;20037;-75
2022/12/12 05:16:20;;;;;;;24.90;12.53;;;;;;;-2.10;100.00;99969.50;5021471;28;20045;-75
2022/12/12 05:18:46;;;;;;;27.87;14.50;;;;;;;-2.11;100.00;99972.91;5018966;28;20481;-76
2022/12/12 05:21:12;;;;;;;23.87;12.47;;;;;;;-2.12;100.00;99971.13;5022395;28;20112;-75
2022/12/12 05:23:37;;;;;;;28.63;13.30;;;;;;;-2.06;100.00;99961.91;5023103;28;20072;-75
2022/12/12 05:26:15;;;;;;;24.83;13.13;;;;;;;-2.02;100.00;99962.88;5020609;28;20069;-75
2022/12/12 05:28:40;;;;;;;24.40;13.60;;;;;;;-2.16;100.00;99954.66;5019520;28;20555;-75
2022/12/12 05:31:06;;;;;;;27.50;14.77;;;;;;;-2.15;100.00;99955.53;5015779;28;20037;-76
2022/12/12 05:33:32;;;;;;;26.90;13.40;;;;;;;-2.02;100.00;99957.72;5019964;28;20033;-76
2022/12/12 05:35:58;;;;;;;27.73;12.97;;;;;;;-2.08;100.00;99955.81;5017854;28;20038;-76
2022/12/12 05:38:24;;;;;;;24.40;12.00;;;;;;;-2.06;100.00;99961.91;5017658;28;20455;-75
2022/12/12 05:40:49;;;;;;;26.37;12.73;;;;;;;-2.08;100.00;99965.28;5014602;28;20061;-75
2022/12/12 05:43:15;;;;;;;26.20;13.00;;;;;;;-2.11;100.00;99957.41;5018529;28;20030;-75
2022/12/12 05:45:40;;;;;;;25.53;12.13;;;;;;;-2.09;100.00;99960.94;5017030;28;20042;-75
2022/12/12 05:48:05;;;;;;;28.27;13.43;;;;;;;-2.11;100.00;99957.41;5014117;28;20499;-75
2022/12/12 05:50:31;;;;;;;25.20;12.50;;;;;;;-2.09;100.00;99971.28;5018136;28;20037;-75
2022/12/12 05:52:56;;;;;;;27.87;14.03;;;;;;;-2.13;100.00;99970.28;5014695;28;20034;-75
2022/12/12 05:55:21;;;;;;;24.03;12.53;;;;;;;-2.11;100.00;99953.13;5013225;28;20032;-75
2022/12/12 05:57:46;;;;;;;27.83;14.17;;;;;;;-2.02;100.00;99957.72;5026285;28;20025;-75
2022/12/12 06:00:12;;;;;;;25.80;13.37;;;;;;;-2.02;100.00;99966.38;5027512;28;20033;-75
2022/12/12 06:02:38;;;;;;;30.50;14.67;;;;;;;-2.01;100.00;99964.66;5022000;28;20507;-75
2022/12/12 06:05:03;;;;;;;30.60;13.20;;;;;;;-2.00;100.00;99956.94;5014629;28;20546;-76
2022/12/12 06:07:29;;;;;;;28.47;13.77;;;;;;;-1.96;100.00;99968.28;5026972;28;20495;-75
2022/12/12 06:09:54;;;;;;;27.30;13.83;;;;;;;-2.03;100.00;99961.16;5012459;28;20408;-75
2022/12/12 06:12:20;;;;;;;26.10;13.83;;;;;;;-2.06;100.00;99958.44;5020804;28;20504;-75
2022/12/12 06:14:45;;;;;;;25.73;13.33;;;;;;;-2.08;100.00;99963.56;5021998;28;20033;-75
2022/12/12 06:17:10;;;;;;;26.50;13.10;;;;;;;-2.09;100.00;99963.53;5016780;28;20080;-75
2022/12/12 06:19:35;;;;;;;27.67;12.63;;;;;;;-2.07;100.00;99964.44;5020012;28;20033;-75
2022/12/12 06:22:01;;;;;;;26.13;13.10;;;;;;;-2.05;100.00;99961.06;5020181;28;20038;-75
2022/12/12 06:24:26;;;;;;;25.37;12.60;;;;;;;-1.94;100.00;99970.91;5022971;28;20033;-75
2022/12/12 06:26:52;;;;;;;23.83;12.37;;;;;;;-2.00;100.00;99971.59;5019576;28;20030;-75
2022/12/12 06:29:17;;;;;;;35.43;15.03;;;;;;;-1.98;100.00;99972.53;5022283;28;20174;-76
2022/12/12 06:31:42;;;;;;;27.00;12.83;;;;;;;-1.99;100.00;99973.38;5020965;28;20060;-75
2022/12/12 06:34:08;;;;;;;27.60;14.20;;;;;;;-2.02;100.00;99979.31;5021050;28;20037;-75
2022/12/12 06:36:33;;;;;;;29.83;13.50;;;;;;;-2.01;100.00;99975.88;5021729;28;20068;-75
2022/12/12 06:38:59;;;;;;;27.23;13.03;;;;;;;-1.94;100.00;99981.25;5019125;28;20568;-75
2022/12/12 06:41:27;;;;;;;26.30;12.90;;;;;;;-1.91;100.00;99991.72;5022917;28;20038;-74
2022/12/12 06:43:52;;;;;;;27.00;13.70;;;;;;;-1.93;100.00;99991.69;5020416;28;20034;-75
2022/12/12 06:46:22;;;;;;;23.80;12.37;;;;;;;-1.89;100.00;99996.09;5020919;28;20511;-75
2022/12/12 06:48:47;;;;;;;24.53;12.87;;;;;;;-1.82;100.00;100000.69;5015676;28;20060;-75
2022/12/12 06:51:19;;;;;;;29.90;14.17;;;;;;;-1.83;100.00;99995.47;5014110;28;20115;-75
2022/12/12 06:53:44;;;;;;;27.87;12.43;;;;;;;-1.80;100.00;99996.44;5020947;28;20557;-75
2022/12/12 06:56:13;;;;;;;26.07;13.17;;;;;;;-1.65;100.00;100000.38;5014977;28;20034;-75
2022/12/12 06:58:38;;;;;;;25.57;11.50;;;;;;;-1.72;100.00;99998.44;5021287;28;20033;-75
2022/12/12 07:01:04;;;;;;;26.10;12.40;;;;;;;-1.66;100.00;99998.63;5018654;28;20056;-74
2022/12/12 07:03:30;;;;;;;25.13;12.60;;;;;;;-1.75;100.00;100000.91;5022353;28;20025;-75
2022/12/12 07:05:55;;;;;;;25.07;12.40;;;;;;;-1.79;100.00;100008.53;5018112;28;20038;-75
2022/12/12 07:08:20;;;;;;;31.53;14.60;;;;;;;-1.66;100.00;100004.69;5022990;28;20081;-75
2022/12/12 07:10:46;;;;;;;25.53;13.67;;;;;;;-1.62;100.00;100005.69;5023511;28;20038;-75
2022/12/12 07:13:11;;;;;;;27.30;13.13;;;;;;;-1.59;100.00;100010.97;5022160;28;20046;-75
2022/12/12 07:15:46;;;;;;;27.83;14.13;;;;;;;-1.64;100.00;100020.28;5025496;28;20034;-75
2022/12/12 07:18:12;;;;;;;28.57;13.33;;;;;;;-1.72;100.00;100024.31;5020657;28;20045;-75
2022/12/12 07:20:43;;;;;;;29.97;13.77;;;;;;;-1.71;100.00;100010.53;5025347;28;20038;-75
2022/12/12 07:23:09;;;;;;;31.07;14.33;;;;;;;-1.65;100.00;100021.06;5021611;28;20053;-75
2022/12/12 07:25:39;;;;;;;29.87;14.40;;;;;;;-1.57;100.00;100014.47;5025868;28;20033;-75
2022/12/12 07:28:05;;;;;;;28.43;13.50;;;;;;;-1.45;100.00;100017.47;5026675;28;20087;-75
2022/12/12 07:30:31;;;;;;;30.63;14.03;;;;;;;-1.49;100.00;100028.56;5024998;28;20037;-75
2022/12/12 07:32:56;;;;;;;28.63;14.03;;;;;;;-1.46;100.00;100023.47;5024909;28;20034;-75
2022/12/12 07:35:22;;;;;;;29.20;13.60;;;;;;;-1.48;100.00;100029.44;5023275;28;20030;-75
2022/12/12 07:37:47;;;;;;;29.87;14.73;;;;;;;-1.44;100.00;100037.38;5024889;28;20526;-76
2022/12/12 07:40:13;;;;;;;32.20;14.90;;;;;;;-1.51;100.00;100032.81;5019286;28;20044;-75
2022/12/12 07:42:38;;;;;;;31.20;14.17;;;;;;;-1.49;100.00;100033.75;5022505;28;20037;-75
2022/12/12 07:45:04;;;;;;;30.40;14.07;;;;;;;-1.48;100.00;100040.66;5021572;28;20034;-75
2022/12/12 07:47:29;;;;;;;31.47;14.20;;;;;;;-1.47;100.00;100037.22;5024047;28;20108;-75
2022/12/12 07:49:54;;;;;;;30.67;14.77;;;;;;;-1.51;100.00;100048.31;5022371;28;20026;-75
2022/12/12 07:52:20;;;;;;;34.13;16.70;;;;;;;-1.44;100.00;100037.38;5019640;28;20641;-75
2022/12/12 07:54:46;;;;;;;30.43;14.60;;;;;;;-1.33;100.00;100040.31;5025409;28;20038;-75
2022/12/12 07:57:11;;;;;;;37.50;18.37;;;;;;;-1.30;100.00;100034.34;5024357;28;20041;-75
2022/12/12 07:59:36;;;;;;;37.30;16.77;;;;;;;-1.19;100.00;100038.19;5024140;28;20060;-75
2022/12/12 08:02:02;;;;;;;29.17;13.97;;;;;;;-1.21;100.00;100045.88;5020127;28;20057;-75
2022/12/12 08:04:27;;;;;;;28.83;14.37;;;;;;;-1.14;100.00;100053.03;5021671;28;20025;-75
2022/12/12 08:06:52;;;;;;;29.63;13.63;;;;;;;-0.99;100.00;100049.19;5022646;28;20497;-75
2022/12/12 08:09:18;;;;;;;30.10;14.77;;;;;;;-0.98;100.00;100051.81;5021477;28;20515;-76
2022/12/12 08:11:44;;;;;;;26.17;13.87;;;;;;;-1.07;100.00;100054.13;5017236;28;20120;-76
2022/12/12 08:14:09;;;;;;;29.43;13.37;;;;;;;-1.07;100.00;100056.72;5022030;28;20038;-75
2022/12/12 08:16:34;;;;;;;28.93;13.70;;;;;;;-1.04;100.00;100058.53;5023709;28;20044;-75
2022/12/12 08:19:00;;;;;;;30.73;15.07;;;;;;;-1.04;100.00;100058.53;5021263;28;20037;-75
2022/12/12 08:21:26;;;;;;;28.60;14.70;;;;;;;-0.99;100.00;100059.56;5024376;28;20041;-75
2022/12/12 08:23:57;;;;;;;28.90;13.70;;;;;;;-0.94;100.00;100061.47;5020784;28;20041;-75
2022/12/12 08:26:22;;;;;;;28.40;14.33;;;;;;;-0.86;100.00;100058.22;5012801;28;20072;-75
2022/12/12 08:28:48;;;;;;;28.30;13.57;;;;;;;-0.90;100.00;100057.25;5023548;28;20071;-75
2022/12/12 08:31:15;;;;;;;31.90;14.80;;;;;;;-0.86;100.00;100058.22;5023388;28;20052;-75
2022/12/12 08:33:41;;;;;;;29.43;13.87;;;;;;;-0.72;100.00;100056.97;5017942;28;20471;-75
2022/12/12 08:36:11;;;;;;;26.57;12.67;;;;;;;-0.71;100.00;100056.13;5019057;28;20076;-75
2022/12/12 08:38:36;;;;;;;26.13;13.10;;;;;;;-0.74;100.00;100061.22;5022591;28;20025;-76
2022/12/12 08:41:02;;;;;;;26.33;12.50;;;;;;;-0.83;100.00;100056.63;5021377;28;20506;-75
2022/12/12 08:43:27;;;;;;;25.80;13.30;;;;;;;-0.88;100.00;100065.97;5024247;28;20034;-76
2022/12/12 08:45:59;;;;;;;23.53;12.83;;;;;;;-0.83;100.00;100063.53;5019940;28;20068;-75
2022/12/12 08:48:24;;;;;;;29.93;14.87;;;;;;;-0.82;100.00;100062.69;5023080;28;20496;-76
2022/12/12 08:50:51;;;;;;;27.43;13.77;;;;;;;-0.72;100.00;100068.19;5020298;28;20044;-75
2022/12/12 08:53:16;;;;;;;25.03;13.23;;;;;;;-0.78;100.00;100068.03;5019911;28;20038;-75
2022/12/12 08:55:42;;;;;;;34.27;16.97;;;;;;;-0.68;100.00;100079.56;5020228;28;20026;-75
2022/12/12 08:58:07;;;;;;;31.27;15.40;;;;;;;-0.60;100.00;100072.91;5018536;28;20045;-75
2022/12/12 09:00:33;;;;;;;34.07;15.90;;;;;;;-0.55;100.00;100073.94;5020176;28;20038;-75
2022/12/12 09:02:58;;;;;;;31.23;14.20;;;;;;;-0.62;100.00;100069.38;5025562;28;20057;-75
2022/12/12 09:05:23;;;;;;;29.93;14.93;;;;;;;-0.78;100.00;100075.78;5021226;28;20025;-75
2022/12/12 09:07:49;;;;;;;33.10;14.77;;;;;;;-0.85;100.00;100072.94;5023206;28;20396;-75
2022/12/12 09:10:14;;;;;;;31.17;14.93;;;;;;;-0.82;100.00;100075.63;5017487;28;20108;-75
2022/12/12 09:12:40;;;;;;;31.87;15.47;;;;;;;-0.78;100.00;100083.56;5019154;28;20068;-76
2022/12/12 09:15:06;;;;;;;31.73;15.97;;;;;;;-0.75;100.00;100082.78;5019633;28;20066;-75
2022/12/12 09:17:32;;;;;;;31.43;14.00;;;;;;;-0.71;100.00;100074.25;5020782;28;20038;-75
2022/12/12 09:19:57;;;;;;;6.67;4.90;;;;;;;-0.62;100.00;100084.94;5023958;28;20087;-75
2022/12/12 09:22:22;;;;;;;8.40;6.30;;;;;;;-0.61;100.00;100067.66;5021560;28;20038;-75
2022/12/12 09:24:48;;;;;;;12.40;7.83;;;;;;;-0.57;100.00;100091.16;5020638;28;20026;-75
2022/12/12 09:27:13;;;;;;;18.33;9.67;;;;;;;-0.56;100.00;100079.06;5019515;28;20107;-75
2022/12/12 09:29:39;;;;;;;16.73;9.90;;;;;;;-0.42;100.00;100076.88;5008942;28;20041;-75
2022/12/12 09:32:05;;;;;;;15.83;9.43;;;;;;;-0.32;100.00;100078.94;5019222;28;20458;-75
2022/12/12 09:34:32;;;;;;;15.20;8.50;;;;;;;-0.26;100.00;100081.72;5023594;28;20455;-75
2022/12/12 09:36:58;;;;;;;18.13;9.20;;;;;;;-0.19;100.00;100086.25;5020825;28;20045;-75
2022/12/12 09:39:23;;;;;;;15.20;9.00;;;;;;;-0.05;100.00;100090.13;5021089;28;20046;-75
2022/12/12 09:41:48;;;;;;;15.77;9.20;;;;;;;0.02;100.00;100091.19;5021822;28;20420;-75
2022/12/12 09:44:19;;;;;;;16.73;9.33;;;;;;;-0.17;100.00;100081.97;5022612;28;20033;-75
2022/12/12 09:47:03;;;;;;;14.53;8.73;;;;;;;-0.19;100.00;100086.25;5017183;28;20063;-75
2022/12/12 09:49:45;;;;;;;14.87;8.90;;;;;;;-0.16;100.00;100086.31;5025867;28;20119;-75
2022/12/12 09:52:30;;;;;;;16.30;9.87;;;;;;;-0.15;100.00;100087.22;5018286;28;20407;-75
2022/12/12 09:54:57;;;;;;;16.10;8.37;;;;;;;-0.12;100.00;100083.00;5018479;28;20033;-75
2022/12/12 09:57:34;;;;;;;15.23;8.73;;;;;;;-0.13;100.00;100081.25;5019996;28;20103;-75
2022/12/12 10:00:11;;;;;;;17.30;9.70;;;;;;;-0.13;100.00;100083.84;5019484;28;20049;-75
2022/12/12 10:03:14;;;;;;;13.13;8.37;;;;;;;-0.17;100.00;100083.69;5021814;28;20068;-75
2022/12/12 10:06:03;;;;;;;13.67;7.80;;;;;;;-0.04;100.00;100091.88;5016212;28;20037;-75
2022/12/12 10:08:41;;;;;;;13.97;7.93;;;;;;;-0.09;100.00;100096.06;5014383;28;20045;-76
2022/12/12 10:11:48;;;;;;;13.43;7.53;;;;;;;-0.09;100.00;100096.06;5019483;28;20038;-75
2022/12/12 10:14:01;;;;;;;11.87;7.10;;;;;;;-0.04;100.00;100099.66;5019703;28;20045;-75
2022/12/12 10:16:30;;;;;;;13.17;7.70;;;;;;;-0.18;100.00;100098.41;5009908;28;20439;-75
2022/12/12 10:19:04;;;;;;;12.97;7.83;;;;;;;-0.20;100.00;100092.28;5020308;28;20377;-75
2022/12/12 10:21:33;;;;;;;13.63;7.40;;;;;;;-0.04;100.00;100093.59;5023209;28;20033;-75
2022/12/12 10:24:14;;;;;;;12.00;7.50;;;;;;;-0.05;100.00;100090.13;5020422;28;20049;-75
2022/12/12 10:26:41;;;;;;;12.60;8.27;;;;;;;0.04;100.00;100099.03;5014214;28;20036;-75
2022/12/12 10:29:19;;;;;;;14.37;8.13;;;;;;;0.04;100.00;100099.03;5008134;28;20120;-75
2022/12/12 10:32:03;;;;;;;12.30;7.93;;;;;;;-0.01;100.00;100102.34;5022336;28;20034;-75
2022/12/12 10:34:37;;;;;;;14.50;8.30;;;;;;;-0.08;100.00;100105.63;5019347;28;20758;-75
2022/12/12 10:37:47;;;;;;;13.50;8.23;;;;;;;-0.21;100.00;100108.66;5019234;28;20550;-74
2022/12/12 10:40:57;;;;;;;14.70;8.33;;;;;;;-0.24;100.00;100103.38;5016889;28;20489;-75
2022/12/12 10:43:30;;;;;;;13.63;8.17;;;;;;;-0.35;100.00;100108.22;5021185;28;20037;-75
2022/12/12 10:46:20;;;;;;;12.20;6.77;;;;;;;-0.31;100.00;100107.50;5016100;28;20069;-76
2022/12/12 10:48:47;;;;;;;16.17;8.50;;;;;;;-0.24;100.00;100113.75;5021954;28;20029;-75
2022/12/12 10:51:16;;;;;;;13.27;7.73;;;;;;;-0.26;100.00;100110.25;5014652;28;20042;-75
2022/12/12 10:53:42;;;;;;;13.83;8.47;;;;;;;-0.24;100.00;100108.56;5004712;28;20054;-74
2022/12/12 10:56:25;;;;;;;13.47;8.17;;;;;;;-0.25;100.00;100112.88;5020944;28;20113;-75
2022/12/12 10:58:58;;;;;;;14.07;8.00;;;;;;;-0.23;100.00;100110.34;5017749;28;20041;-75
2022/12/12 11:01:34;;;;;;;13.93;8.23;;;;;;;-0.23;100.00;100107.75;5019861;28;20030;-76
2022/12/12 11:04:00;;;;;;;13.90;7.83;;;;;;;-0.25;100.00;100112.00;5011715;28;20074;-76
2022/12/12 11:06:30;;;;;;;13.60;8.40;;;;;;;-0.25;100.00;100106.81;5018019;28;20058;-76
2022/12/12 11:09:06;;;;;;;14.57;8.77;;;;;;;-0.24;100.00;100109.47;5019173;28;20038;-76
2022/12/12 11:11:32;;;;;;;16.10;8.93;;;;;;;-0.19;100.00;100108.72;4995490;28;20061;-76
2022/12/12 11:14:18;;;;;;;14.73;8.37;;;;;;;-0.14;100.00;100101.94;5021136;28;20065;-76
2022/12/12 11:16:44;;;;;;;14.90;8.50;;;;;;;-0.20;100.00;100101.78;5015856;28;20121;-76
2022/12/12 11:19:17;;;;;;;14.63;8.60;;;;;;;-0.20;100.00;100110.44;5022086;28;20120;-76
2022/12/12 11:21:44;;;;;;;12.40;7.27;;;;;;;-0.28;100.00;100099.81;5011295;28;20407;-76
2022/12/12 11:24:16;;;;;;;13.70;7.67;;;;;;;-0.20;100.00;100105.25;5016237;28;20088;-76
2022/12/12 11:26:57;;;;;;;13.37;8.80;;;;;;;-0.26;100.00;100110.25;5014420;28;20052;-75
2022/12/12 11:29:26;;;;;;;10.97;7.27;;;;;;;-0.27;100.00;100105.88;5011992;28;20095;-76
2022/12/12 11:31:52;;;;;;;11.83;7.43;;;;;;;-0.32;100.00;100104.84;5015004;28;20046;-76
2022/12/12 11:34:20;;;;;;;12.10;7.93;;;;;;;-0.24;100.00;100108.56;5015872;28;20037;-76
2022/12/12 11:36:47;;;;;;;12.57;8.20;;;;;;;-0.25;100.00;100106.81;5018818;28;20404;-76
2022/12/12 11:39:32;;;;;;;13.53;7.37;;;;;;;-0.18;100.00;100111.34;5017227;28;20037;-76